Time;durP1;ratioP1;P1;durP2;ratioP2;P2;SDS_P1;SDS_P2;PMS_P1;PMS_P2;Temp;Humidity;BMP_temperature;BMP_pressure;BME280_temperature;BME280_humidity;BME280_pressure;Samples;Min_cycle;Max_cycle;Signal;HPM_P1;HPM_P2
2023/04/16 00:01:26;;;;;;;29.47;20.10;;;;;;;;;;5094936;28;20545;-71
2023/04/16 00:06:40;;;;;;;29.07;18.00;;;;;;;;;;5085749;28;20445;-70
2023/04/16 00:09:08;;;;;;;30.10;21.07;;;;;;;;;;5085078;28;20444;-71
2023/04/16 00:11:39;;;;;;;29.83;21.63;;;;;;;;;;5084844;28;20449;-70
2023/04/16 00:14:08;;;;;;;26.43;18.80;;;;;;;;;;5095694;28;20456;-70
2023/04/16 00:16:39;;;;;;;30.20;20.07;;;;;;;;;;5094731;28;20915;-71
2023/04/16 00:19:08;;;;;;;32.90;21.80;;;;;;;;;;5097964;28;20447;-71
2023/04/16 00:21:42;;;;;;;31.97;20.77;;;;;;;;;;5096026;28;20535;-70
2023/04/16 00:24:10;;;;;;;32.07;19.57;;;;;;;;;;5079489;28;20472;-71
2023/04/16 00:26:43;;;;;;;31.20;21.30;;;;;;;;;;5070307;28;20491;-71
2023/04/16 00:29:16;;;;;;;29.03;19.93;;;;;;;;;;5088889;28;20459;-71
2023/04/16 00:31:47;;;;;;;35.43;20.77;;;;;;;;;;5086969;28;20891;-71
2023/04/16 00:34:20;;;;;;;30.67;19.97;;;;;;;;;;5087694;28;20445;-70
2023/04/16 00:37:04;;;;;;;30.47;21.50;;;;;;;;;;5094343;28;20457;-71
2023/04/16 00:39:35;;;;;;;36.70;22.07;;;;;;;;;;5092804;28;20527;-71
2023/04/16 00:42:03;;;;;;;33.47;22.10;;;;;;;;;;5086511;28;20877;-70
2023/04/16 00:44:34;;;;;;;30.27;20.43;;;;;;;;;;5096447;28;20443;-70
2023/04/16 00:47:02;;;;;;;30.07;20.40;;;;;;;;;;5094631;28;20464;-71
2023/04/16 00:49:36;;;;;;;35.47;20.17;;;;;;;;;;5086478;28;20463;-72
2023/04/16 00:52:03;;;;;;;29.10;19.77;;;;;;;;;;5087554;28;20453;-70
2023/04/16 00:54:32;;;;;;;25.30;19.17;;;;;;;;;;5088398;28;20604;-71
2023/04/16 00:57:09;;;;;;;27.07;19.03;;;;;;;;;;5090890;28;20449;-70
2023/04/16 01:02:28;;;;;;;31.97;21.73;;;;;;;;;;5084767;28;20449;-72
2023/04/16 01:04:57;;;;;;;29.23;21.50;;;;;;;;;;5086983;28;20453;-71
2023/04/16 01:07:25;;;;;;;29.77;19.73;;;;;;;;;;5085408;28;20740;-71
2023/04/16 01:09:53;;;;;;;28.67;19.27;;;;;;;;;;5086102;28;20461;-71
2023/04/16 01:12:26;;;;;;;28.60;20.10;;;;;;;;;;5088716;28;20497;-70
2023/04/16 01:14:55;;;;;;;28.07;19.00;;;;;;;;;;5091127;28;20464;-70
2023/04/16 01:17:23;;;;;;;28.93;19.03;;;;;;;;;;5091062;28;20453;-70
2023/04/16 01:20:00;;;;;;;26.10;18.73;;;;;;;;;;5083537;28;20527;-72
2023/04/16 01:22:47;;;;;;;26.03;19.40;;;;;;;;;;5086711;28;20503;-72
2023/04/16 01:25:28;;;;;;;26.80;18.30;;;;;;;;;;5086882;28;20486;-71
2023/04/16 01:27:58;;;;;;;32.57;19.90;;;;;;;;;;5089191;28;20492;-71
2023/04/16 01:30:29;;;;;;;32.80;20.30;;;;;;;;;;5097800;28;20449;-70
2023/04/16 01:32:58;;;;;;;36.20;20.20;;;;;;;;;;5090410;28;20479;-70
2023/04/16 01:35:28;;;;;;;25.63;17.57;;;;;;;;;;5098313;28;20455;-70
2023/04/16 01:38:00;;;;;;;30.97;17.37;;;;;;;;;;5092504;28;20469;-71
2023/04/16 01:40:33;;;;;;;31.07;18.90;;;;;;;;;;5080526;28;20465;-71
2023/04/16 01:43:14;;;;;;;;;;;;;;;;;;;;;
2023/04/16 01:45:42;;;;;;;25.60;17.23;;;;;;;;;;5087191;28;20429;-70
2023/04/16 01:48:21;;;;;;;24.90;17.17;;;;;;;;;;5089608;28;20447;-71
2023/04/16 01:50:57;;;;;;;27.40;17.20;;;;;;;;;;5095932;28;20447;-69
2023/04/16 01:53:26;;;;;;;22.90;16.20;;;;;;;;;;5089694;28;20481;-70
2023/04/16 01:55:58;;;;;;;25.20;17.23;;;;;;;;;;5086368;28;20462;-71
2023/04/16 01:58:26;;;;;;;26.57;17.90;;;;;;;;;;5085798;28;20467;-71
2023/04/16 02:00:58;;;;;;;24.70;16.87;;;;;;;;;;5090819;28;20588;-71
2023/04/16 02:03:26;;;;;;;27.30;17.50;;;;;;;;;;5086570;28;20507;-70
2023/04/16 02:05:54;;;;;;;23.40;16.77;;;;;;;;;;5088022;28;20860;-70
2023/04/16 02:08:22;;;;;;;22.70;16.50;;;;;;;;;;5094614;28;20740;-70
2023/04/16 02:10:58;;;;;;;20.10;14.90;;;;;;;;;;5079918;28;20500;-71
2023/04/16 02:13:25;;;;;;;25.57;16.67;;;;;;;;;;5077983;28;20491;-70
2023/04/16 02:15:56;;;;;;;26.90;17.70;;;;;;;;;;5075002;28;20445;-71
2023/04/16 02:18:24;;;;;;;25.43;15.33;;;;;;;;;;5090751;28;21103;-72
2023/04/16 02:20:53;;;;;;;26.10;15.90;;;;;;;;;;5098693;28;20573;-72
2023/04/16 02:23:23;;;;;;;32.93;15.70;;;;;;;;;;5100309;28;20477;-70
2023/04/16 02:25:51;;;;;;;27.53;17.07;;;;;;;;;;5099198;28;20522;-71
2023/04/16 02:28:20;;;;;;;23.00;15.60;;;;;;;;;;5099566;28;20466;-71
2023/04/16 02:30:58;;;;;;;28.20;15.10;;;;;;;;;;5098419;28;20475;-71
2023/04/16 02:33:30;;;;;;;23.20;15.10;;;;;;;;;;5097113;28;20491;-70
2023/04/16 02:36:00;;;;;;;25.60;16.80;;;;;;;;;;5098365;28;20547;-71
2023/04/16 02:38:30;;;;;;;27.13;14.87;;;;;;;;;;5096798;28;20676;-71
2023/04/16 02:44:21;;;;;;;22.03;14.70;;;;;;;;;;5076890;28;20515;-70
2023/04/16 02:46:49;;;;;;;23.90;14.93;;;;;;;;;;5097242;28;20533;-71
2023/04/16 02:49:16;;;;;;;22.33;14.87;;;;;;;;;;5099015;28;20459;-71
2023/04/16 02:51:43;;;;;;;20.30;14.90;;;;;;;;;;5099673;28;20826;-71
2023/04/16 02:54:11;;;;;;;26.80;15.43;;;;;;;;;;5099623;28;20542;-71
2023/04/16 02:56:43;;;;;;;21.40;13.57;;;;;;;;;;5097287;28;20686;-70
2023/04/16 02:59:15;;;;;;;21.90;16.43;;;;;;;;;;5094867;28;20614;-71
2023/04/16 03:01:46;;;;;;;25.57;16.40;;;;;;;;;;5098632;28;20463;-71
2023/04/16 03:04:14;;;;;;;22.10;15.40;;;;;;;;;;5096684;28;20459;-70
2023/04/16 03:06:42;;;;;;;21.33;14.53;;;;;;;;;;5096938;28;20436;-70
2023/04/16 03:09:13;;;;;;;21.60;14.70;;;;;;;;;;5096191;28;20800;-71
2023/04/16 03:14:43;;;;;;;21.27;14.07;;;;;;;;;;5096469;28;20812;-71
2023/04/16 03:17:11;;;;;;;21.03;13.63;;;;;;;;;;5097367;28;20464;-69
2023/04/16 03:19:51;;;;;;;21.97;13.70;;;;;;;;;;5098448;28;20472;-72
2023/04/16 03:22:24;;;;;;;17.90;13.93;;;;;;;;;;5098460;28;20483;-70
2023/04/16 03:24:55;;;;;;;20.60;14.23;;;;;;;;;;5100158;28;20456;-71
2023/04/16 03:27:34;;;;;;;21.63;14.10;;;;;;;;;;5078282;28;20464;-70
2023/04/16 03:30:06;;;;;;;20.33;13.77;;;;;;;;;;5096665;28;20454;-71
2023/04/16 03:32:35;;;;;;;19.57;13.97;;;;;;;;;;5097101;28;20489;-70
2023/04/16 03:35:11;;;;;;;20.00;13.00;;;;;;;;;;5097563;28;20805;-70
2023/04/16 03:37:42;;;;;;;22.40;13.60;;;;;;;;;;5099249;28;20444;-70
2023/04/16 03:42:52;;;;;;;25.60;13.47;;;;;;;;;;5095199;28;20459;-70
2023/04/16 03:45:25;;;;;;;22.77;13.30;;;;;;;;;;5098814;28;20491;-71
2023/04/16 03:48:10;;;;;;;21.10;13.00;;;;;;;;;;5097017;28;20886;-71
2023/04/16 03:50:48;;;;;;;21.73;14.20;;;;;;;;;;5099769;28;20577;-71
2023/04/16 03:53:16;;;;;;;24.33;13.97;;;;;;;;;;5102148;28;20865;-71
2023/04/16 03:55:51;;;;;;;23.40;13.33;;;;;;;;;;5102143;28;20467;-71
2023/04/16 03:58:19;;;;;;;19.20;13.27;;;;;;;;;;5104370;28;20454;-72
2023/04/16 04:00:51;;;;;;;22.93;14.07;;;;;;;;;;5101049;28;20499;-71
2023/04/16 04:03:18;;;;;;;21.60;13.40;;;;;;;;;;5103494;28;20562;-71
2023/04/16 04:06:02;;;;;;;18.57;12.50;;;;;;;;;;5100907;28;20467;-71
2023/04/16 04:08:37;;;;;;;19.37;13.30;;;;;;;;;;5100247;28;20490;-71
2023/04/16 04:11:12;;;;;;;18.67;12.77;;;;;;;;;;5101546;28;20855;-70
2023/04/16 04:13:40;;;;;;;18.93;11.10;;;;;;;;;;5099109;28;20486;-70
2023/04/16 04:16:14;;;;;;;18.23;13.03;;;;;;;;;;5097880;28;20525;-71
2023/04/16 04:18:43;;;;;;;26.27;14.93;;;;;;;;;;5100414;28;20455;-70
2023/04/16 04:21:13;;;;;;;18.10;12.43;;;;;;;;;;5102309;28;20543;-71
2023/04/16 04:23:42;;;;;;;18.07;12.70;;;;;;;;;;5120247;28;20768;-71
2023/04/16 04:26:10;;;;;;;26.63;14.73;;;;;;;;;;5117826;28;21057;-70
2023/04/16 04:28:38;;;;;;;18.13;12.50;;;;;;;;;;5120530;28;20455;-70
2023/04/16 04:31:10;;;;;;;20.93;12.90;;;;;;;;;;5121697;28;20465;-71
2023/04/16 04:33:38;;;;;;;19.50;13.57;;;;;;;;;;5120084;28;20554;-70
2023/04/16 04:36:24;;;;;;;19.30;13.13;;;;;;;;;;5122342;28;20449;-70
2023/04/16 04:38:57;;;;;;;22.33;14.03;;;;;;;;;;5115007;28;20486;-70
2023/04/16 04:41:29;;;;;;;19.90;13.83;;;;;;;;;;5081103;28;20912;-70
2023/04/16 04:44:06;;;;;;;20.93;12.07;;;;;;;;;;5080476;28;20460;-70
2023/04/16 04:46:35;;;;;;;16.93;12.80;;;;;;;;;;5079044;28;20452;-71
2023/04/16 04:49:04;;;;;;;18.87;12.70;;;;;;;;;;5077236;28;20491;-72
2023/04/16 04:51:35;;;;;;;21.07;13.00;;;;;;;;;;5078640;28;21093;-71
2023/04/16 04:54:03;;;;;;;21.57;14.20;;;;;;;;;;5078254;28;20745;-70
2023/04/16 04:56:44;;;;;;;22.40;13.37;;;;;;;;;;5073667;28;20468;-70
2023/04/16 04:59:12;;;;;;;22.20;12.40;;;;;;;;;;5079794;28;20530;-71
2023/04/16 05:01:45;;;;;;;21.27;14.00;;;;;;;;;;5082017;28;20522;-71
2023/04/16 05:04:18;;;;;;;19.07;13.10;;;;;;;;;;5081362;28;20483;-70
2023/04/16 05:06:46;;;;;;;17.83;12.20;;;;;;;;;;5080754;28;20534;-70
2023/04/16 05:09:14;;;;;;;18.80;12.60;;;;;;;;;;5080568;28;20533;-70
2023/04/16 05:11:44;;;;;;;17.83;13.30;;;;;;;;;;5082120;28;20457;-71
2023/04/16 05:14:12;;;;;;;16.30;11.07;;;;;;;;;;5069898;28;20542;-71
2023/04/16 05:16:42;;;;;;;16.27;12.27;;;;;;;;;;5068101;28;20465;-71
2023/04/16 05:19:21;;;;;;;18.93;12.80;;;;;;;;;;5066156;28;20480;-72
2023/04/16 05:22:07;;;;;;;16.37;11.30;;;;;;;;;;5078050;28;20463;-72
2023/04/16 05:24:54;;;;;;;18.83;13.80;;;;;;;;;;5080691;28;20449;-72
2023/04/16 05:27:35;;;;;;;15.43;11.90;;;;;;;;;;5061276;28;20472;-70
2023/04/16 05:30:10;;;;;;;23.10;12.80;;;;;;;;;;5080303;28;20453;-71
2023/04/16 05:32:40;;;;;;;18.23;13.97;;;;;;;;;;5078816;28;20448;-71
2023/04/16 05:35:10;;;;;;;16.97;12.80;;;;;;;;;;5079994;28;20508;-71
2023/04/16 05:37:50;;;;;;;15.83;11.80;;;;;;;;;;5078566;28;20441;-73
2023/04/16 05:40:26;;;;;;;17.60;12.77;;;;;;;;;;5071935;28;20557;-71
2023/04/16 05:43:03;;;;;;;16.87;12.90;;;;;;;;;;5075259;28;20464;-70
2023/04/16 05:45:38;;;;;;;20.73;13.70;;;;;;;;;;5073959;28;20724;-70
2023/04/16 05:48:12;;;;;;;17.63;12.37;;;;;;;;;;5073260;28;21048;-70
2023/04/16 05:51:01;;;;;;;;;;;;;;;;;;;;;
2023/04/16 05:53:32;;;;;;;18.83;12.80;;;;;;;;;;5078361;28;20524;-71
2023/04/16 05:56:07;;;;;;;19.23;12.40;;;;;;;;;;5077256;28;20857;-71
2023/04/16 06:01:23;;;;;;;24.40;12.13;;;;;;;;;;5079489;28;20548;-71
2023/04/16 06:03:51;;;;;;;19.67;12.63;;;;;;;;;;5078574;28;20465;-71
2023/04/16 06:06:26;;;;;;;17.43;11.50;;;;;;;;;;5076785;28;20487;-70
2023/04/16 06:09:00;;;;;;;19.83;13.07;;;;;;;;;;5075518;28;20456;-71
2023/04/16 06:11:28;;;;;;;18.30;13.10;;;;;;;;;;5077887;28;20526;-70
2023/04/16 06:13:56;;;;;;;18.10;12.17;;;;;;;;;;5076669;28;20492;-70
2023/04/16 06:16:24;;;;;;;19.77;11.80;;;;;;;;;;5077348;28;20471;-70
2023/04/16 06:18:51;;;;;;;25.13;13.37;;;;;;;;;;5055773;28;20628;-71
2023/04/16 06:21:27;;;;;;;20.93;13.37;;;;;;;;;;5056630;28;20533;-72
2023/04/16 06:26:39;;;;;;;21.57;13.37;;;;;;;;;;5057862;28;20445;-71
2023/04/16 06:29:23;;;;;;;23.27;13.10;;;;;;;;;;5075897;28;20543;-72
2023/04/16 06:31:50;;;;;;;18.97;11.57;;;;;;;;;;5060579;28;20453;-69
2023/04/16 06:34:18;;;;;;;21.00;13.47;;;;;;;;;;5057650;28;20489;-72
2023/04/16 06:37:00;;;;;;;18.67;13.70;;;;;;;;;;5059293;28;20529;-70
2023/04/16 06:39:36;;;;;;;22.27;14.50;;;;;;;;;;5055676;28;20517;-70
2023/04/16 06:42:04;;;;;;;22.20;14.10;;;;;;;;;;5056235;28;20877;-71
2023/04/16 06:44:32;;;;;;;18.70;14.13;;;;;;;;;;5057213;28;20531;-70
2023/04/16 06:47:04;;;;;;;21.83;14.40;;;;;;;;;;5057265;28;20534;-71
2023/04/16 06:49:42;;;;;;;20.70;13.03;;;;;;;;;;5055810;28;20549;-71
2023/04/16 06:52:12;;;;;;;18.70;13.67;;;;;;;;;;5073854;28;20445;-70
2023/04/16 06:54:40;;;;;;;25.57;16.23;;;;;;;;;;5075088;28;20657;-70
2023/04/16 06:57:16;;;;;;;18.10;13.33;;;;;;;;;;5075068;28;20865;-71
2023/04/16 06:59:48;;;;;;;17.70;12.67;;;;;;;;;;5075183;28;20913;-72
2023/04/16 07:02:21;;;;;;;18.60;12.60;;;;;;;;;;5076381;28;20461;-71
2023/04/16 07:04:51;;;;;;;17.73;12.73;;;;;;;;;;5054555;28;20449;-71
2023/04/16 07:07:20;;;;;;;21.57;13.90;;;;;;;;;;5076784;28;20455;-70
2023/04/16 07:09:48;;;;;;;19.70;14.07;;;;;;;;;;5072062;28;20576;-71
2023/04/16 07:12:22;;;;;;;18.10;13.50;;;;;;;;;;5055426;28;20446;-70
2023/04/16 07:14:53;;;;;;;20.57;14.20;;;;;;;;;;5061708;28;20484;-72
2023/04/16 07:17:24;;;;;;;17.07;12.33;;;;;;;;;;5073604;28;20461;-71
2023/04/16 07:19:56;;;;;;;17.30;13.20;;;;;;;;;;5060167;28;20450;-71
2023/04/16 07:22:41;;;;;;;24.77;14.20;;;;;;;;;;5061675;28;20437;-70
2023/04/16 07:25:15;;;;;;;17.97;12.67;;;;;;;;;;5065401;28;20517;-71
2023/04/16 07:27:43;;;;;;;23.97;14.40;;;;;;;;;;5063918;28;20866;-69
2023/04/16 07:30:31;;;;;;;22.70;13.20;;;;;;;;;;5064946;28;20465;-69
2023/04/16 07:33:03;;;;;;;21.70;13.10;;;;;;;;;;5073483;28;20452;-71
2023/04/16 07:38:15;;;;;;;20.20;13.60;;;;;;;;;;5079048;28;20563;-70
2023/04/16 07:40:53;;;;;;;18.60;14.07;;;;;;;;;;5083729;28;20467;-71
2023/04/16 07:43:26;;;;;;;24.60;13.03;;;;;;;;;;5079448;28;20460;-71
2023/04/16 07:46:14;;;;;;;21.70;12.87;;;;;;;;;;5058549;28;20462;-72
2023/04/16 07:48:47;;;;;;;19.40;13.47;;;;;;;;;;5076674;28;20454;-71
2023/04/16 07:51:15;;;;;;;19.47;14.33;;;;;;;;;;5081097;28;20489;-70
2023/04/16 07:53:48;;;;;;;15.60;11.73;;;;;;;;;;5080064;28;20624;-70
2023/04/16 07:56:26;;;;;;;18.90;12.57;;;;;;;;;;5073192;28;20984;-71
2023/04/16 07:58:57;;;;;;;17.77;12.70;;;;;;;;;;5067351;28;20464;-71
2023/04/16 08:01:27;;;;;;;22.97;12.63;;;;;;;;;;5065463;28;20521;-71
2023/04/16 08:03:57;;;;;;;23.90;14.20;;;;;;;;;;5064776;28;21096;-71
2023/04/16 08:06:27;;;;;;;14.90;12.17;;;;;;;;;;5076028;28;20455;-71
2023/04/16 08:09:13;;;;;;;16.73;11.73;;;;;;;;;;5069048;28;20516;-73
2023/04/16 08:11:45;;;;;;;17.00;11.43;;;;;;;;;;5064633;28;20548;-71
2023/04/16 08:14:20;;;;;;;18.90;12.60;;;;;;;;;;5069159;28;20923;-72
2023/04/16 08:16:51;;;;;;;18.53;13.13;;;;;;;;;;5065500;28;20445;-71
2023/04/16 08:19:19;;;;;;;18.83;12.60;;;;;;;;;;5065770;28;20450;-71
2023/04/16 08:21:48;;;;;;;18.40;11.67;;;;;;;;;;5065663;28;20529;-70
2023/04/16 08:24:19;;;;;;;18.37;14.00;;;;;;;;;;5074841;28;20456;-70
2023/04/16 08:26:51;;;;;;;17.57;12.33;;;;;;;;;;5076188;28;20464;-71
2023/04/16 08:29:24;;;;;;;17.37;13.10;;;;;;;;;;5075990;28;20513;-71
2023/04/16 08:31:51;;;;;;;16.60;12.80;;;;;;;;;;5077507;28;20460;-69
2023/04/16 08:34:20;;;;;;;15.57;11.43;;;;;;;;;;5077019;28;20488;-71
2023/04/16 08:36:49;;;;;;;18.53;12.60;;;;;;;;;;5074422;28;20600;-70
2023/04/16 08:39:25;;;;;;;15.40;12.40;;;;;;;;;;5075485;28;20472;-71
2023/04/16 08:41:54;;;;;;;17.13;11.13;;;;;;;;;;5075020;28;20464;-71
2023/04/16 08:44:30;;;;;;;17.43;11.97;;;;;;;;;;5075633;28;20559;-72
2023/04/16 08:46:58;;;;;;;18.23;12.37;;;;;;;;;;5074449;28;20459;-71
2023/04/16 08:49:26;;;;;;;16.90;10.97;;;;;;;;;;5074217;28;20547;-71
2023/04/16 08:51:55;;;;;;;16.90;11.47;;;;;;;;;;5075533;28;20449;-71
2023/04/16 08:54:32;;;;;;;23.17;12.97;;;;;;;;;;5062835;28;20602;-71
2023/04/16 08:57:06;;;;;;;16.07;11.33;;;;;;;;;;5060884;28;20544;-70
2023/04/16 08:59:39;;;;;;;17.43;12.40;;;;;;;;;;5063937;28;20469;-70
2023/04/16 09:02:25;;;;;;;18.93;11.63;;;;;;;;;;5060180;28;20483;-72
2023/04/16 09:04:56;;;;;;;17.60;11.73;;;;;;;;;;5066559;28;20460;-71
2023/04/16 09:07:26;;;;;;;19.00;12.40;;;;;;;;;;5072862;28;20441;-70
2023/04/16 09:10:07;;;;;;;17.10;12.83;;;;;;;;;;5059239;28;20464;-71
2023/04/16 09:12:40;;;;;;;16.30;12.00;;;;;;;;;;5062374;28;20457;-72
2023/04/16 09:15:12;;;;;;;25.97;13.27;;;;;;;;;;5050202;28;20924;-71
2023/04/16 09:17:46;;;;;;;18.13;12.37;;;;;;;;;;5056481;28;21115;-73
2023/04/16 09:20:31;;;;;;;16.10;11.73;;;;;;;;;;5071898;28;20559;-72
2023/04/16 09:23:12;;;;;;;20.37;13.60;;;;;;;;;;5063628;28;20464;-72
2023/04/16 09:25:46;;;;;;;18.40;13.03;;;;;;;;;;5071716;28;20578;-71
2023/04/16 09:28:37;;;;;;;14.80;11.90;;;;;;;;;;5073310;28;20456;-71
2023/04/16 09:31:11;;;;;;;17.83;13.10;;;;;;;;;;5074168;28;20468;-71
2023/04/16 09:33:41;;;;;;;16.43;12.10;;;;;;;;;;5072124;28;20767;-70
2023/04/16 09:36:09;;;;;;;15.93;12.90;;;;;;;;;;5070012;28;20481;-70
2023/04/16 09:38:50;;;;;;;17.17;12.20;;;;;;;;;;5070145;28;21045;-71
2023/04/16 09:41:20;;;;;;;16.73;12.00;;;;;;;;;;5070192;28;20507;-70
2023/04/16 09:43:55;;;;;;;19.40;12.73;;;;;;;;;;5070421;28;20449;-70
2023/04/16 09:46:23;;;;;;;13.07;10.50;;;;;;;;;;5069869;28;20548;-70
2023/04/16 09:48:51;;;;;;;17.40;12.30;;;;;;;;;;5068413;28;20452;-70
2023/04/16 09:51:18;;;;;;;14.20;11.80;;;;;;;;;;5071938;28;20627;-69
2023/04/16 09:53:55;;;;;;;20.77;13.37;;;;;;;;;;5070307;28;20559;-69
2023/04/16 09:56:26;;;;;;;16.50;11.37;;;;;;;;;;5073359;28;20487;-70
2023/04/16 09:59:01;;;;;;;19.10;12.40;;;;;;;;;;5071611;28;20453;-70
2023/04/16 10:01:29;;;;;;;15.93;11.30;;;;;;;;;;5072727;28;20680;-69
2023/04/16 10:03:56;;;;;;;15.50;12.23;;;;;;;;;;5072276;28;20579;-72
2023/04/16 10:06:27;;;;;;;17.60;10.47;;;;;;;;;;5073946;28;20892;-70
2023/04/16 10:08:56;;;;;;;16.43;12.10;;;;;;;;;;5071888;28;20524;-69
2023/04/16 10:11:27;;;;;;;22.30;15.47;;;;;;;;;;5073703;28;20464;-70
2023/04/16 10:13:55;;;;;;;17.33;12.20;;;;;;;;;;5073795;28;20461;-70
2023/04/16 10:16:23;;;;;;;15.03;12.07;;;;;;;;;;5073576;28;20495;-70
2023/04/16 10:18:51;;;;;;;18.20;11.63;;;;;;;;;;5072271;28;20811;-70
2023/04/16 10:21:23;;;;;;;20.63;12.97;;;;;;;;;;5070844;28;20633;-70
2023/04/16 10:23:52;;;;;;;14.83;10.60;;;;;;;;;;5067492;28;20472;-69
2023/04/16 10:26:20;;;;;;;16.00;10.47;;;;;;;;;;5066945;28;20475;-70
2023/04/16 10:28:50;;;;;;;14.80;10.73;;;;;;;;;;5067234;28;20464;-70
2023/04/16 10:31:18;;;;;;;15.90;10.13;;;;;;;;;;5071225;28;20461;-70
2023/04/16 10:33:46;;;;;;;17.40;11.60;;;;;;;;;;5070383;28;20453;-70
2023/04/16 10:36:14;;;;;;;16.00;11.60;;;;;;;;;;5069439;28;20475;-70
2023/04/16 10:38:42;;;;;;;18.93;11.50;;;;;;;;;;5072983;28;20451;-70
2023/04/16 10:41:12;;;;;;;15.10;11.30;;;;;;;;;;5073394;28;20465;-69
2023/04/16 10:43:45;;;;;;;19.23;11.77;;;;;;;;;;5071535;28;21120;-71
2023/04/16 10:46:25;;;;;;;12.77;10.30;;;;;;;;;;5073884;28;20706;-71
2023/04/16 10:48:54;;;;;;;15.13;9.33;;;;;;;;;;5073965;28;20456;-71
2023/04/16 10:51:30;;;;;;;23.13;12.40;;;;;;;;;;5076529;28;20520;-70
2023/04/16 10:53:58;;;;;;;16.63;10.43;;;;;;;;;;5074371;28;20529;-70
2023/04/16 10:56:35;;;;;;;14.03;10.30;;;;;;;;;;5067392;28;20553;-69
2023/04/16 10:59:06;;;;;;;11.07;9.73;;;;;;;;;;5054339;28;20446;-70
2023/04/16 11:01:44;;;;;;;13.10;9.87;;;;;;;;;;5054288;28;20465;-72
2023/04/16 11:04:28;;;;;;;13.90;10.60;;;;;;;;;;5066224;28;21000;-70
2023/04/16 11:07:03;;;;;;;11.43;9.93;;;;;;;;;;5065023;28;20457;-70
2023/04/16 11:09:48;;;;;;;13.37;10.90;;;;;;;;;;5058714;28;20454;-70
2023/04/16 11:12:18;;;;;;;13.53;10.07;;;;;;;;;;5041085;28;20495;-71
2023/04/16 11:14:49;;;;;;;11.90;9.37;;;;;;;;;;5050143;28;20454;-71
2023/04/16 11:17:18;;;;;;;12.40;9.67;;;;;;;;;;5069715;28;20480;-71
2023/04/16 11:19:49;;;;;;;14.03;9.77;;;;;;;;;;5071403;28;20511;-70
2023/04/16 11:22:19;;;;;;;16.07;9.93;;;;;;;;;;5070834;28;20565;-71
2023/04/16 11:24:47;;;;;;;13.47;10.60;;;;;;;;;;5071216;28;20572;-72
2023/04/16 11:27:16;;;;;;;17.10;11.47;;;;;;;;;;5071669;28;20484;-70
2023/04/16 11:29:46;;;;;;;13.27;8.90;;;;;;;;;;5059183;28;20560;-72
2023/04/16 11:32:32;;;;;;;15.30;9.73;;;;;;;;;;5070170;28;20449;-72
2023/04/16 11:35:26;;;;;;;13.27;10.40;;;;;;;;;;5062171;28;20469;-72
2023/04/16 11:38:24;;;;;;;16.33;9.57;;;;;;;;;;5050728;28;20469;-73
2023/04/16 11:40:54;;;;;;;12.93;10.10;;;;;;;;;;5051973;28;20449;-70
2023/04/16 11:43:22;;;;;;;13.57;10.23;;;;;;;;;;5053638;28;20443;-70
2023/04/16 11:46:05;;;;;;;11.93;9.03;;;;;;;;;;5071379;28;20449;-69
2023/04/16 11:48:50;;;;;;;15.23;10.60;;;;;;;;;;5069519;28;20456;-70
2023/04/16 11:51:21;;;;;;;10.53;8.90;;;;;;;;;;5068691;28;20472;-72
2023/04/16 11:53:53;;;;;;;14.07;7.77;;;;;;;;;;5070509;28;20457;-70
2023/04/16 11:56:28;;;;;;;14.33;9.73;;;;;;;;;;5071239;28;20531;-73
2023/04/16 11:59:18;;;;;;;15.93;8.63;;;;;;;;;;5067783;28;20547;-72
2023/04/16 12:02:01;;;;;;;14.33;8.30;;;;;;;;;;5051779;28;20446;-72
2023/04/16 12:04:35;;;;;;;10.53;8.40;;;;;;;;;;5048485;28;20826;-72
2023/04/16 12:07:11;;;;;;;11.97;9.17;;;;;;;;;;5048778;28;20527;-72
2023/04/16 12:09:39;;;;;;;10.70;7.70;;;;;;;;;;5052897;28;20828;-71
2023/04/16 12:12:25;;;;;;;13.00;10.50;;;;;;;;;;5048976;28;20449;-72
2023/04/16 12:14:58;;;;;;;12.70;10.03;;;;;;;;;;5052559;28;20449;-72
2023/04/16 12:17:26;;;;;;;13.13;8.17;;;;;;;;;;5051634;28;20481;-71
2023/04/16 12:19:57;;;;;;;10.70;7.97;;;;;;;;;;5051969;28;20477;-71
2023/04/16 12:22:33;;;;;;;9.07;8.10;;;;;;;;;;5052481;28;20564;-71
2023/04/16 12:25:03;;;;;;;14.00;8.60;;;;;;;;;;5051032;28;20457;-71
2023/04/16 12:27:49;;;;;;;12.20;7.80;;;;;;;;;;5050336;28;20547;-71
2023/04/16 12:30:24;;;;;;;9.43;7.77;;;;;;;;;;5049722;28;21036;-71
2023/04/16 12:33:01;;;;;;;9.83;7.80;;;;;;;;;;5059037;28;21036;-71
2023/04/16 12:35:43;;;;;;;10.40;8.60;;;;;;;;;;5067481;28;20456;-72
2023/04/16 12:38:13;;;;;;;10.50;7.90;;;;;;;;;;5072833;28;20489;-71
2023/04/16 12:40:41;;;;;;;8.83;7.60;;;;;;;;;;5068665;28;20453;-71
2023/04/16 12:43:12;;;;;;;7.57;6.80;;;;;;;;;;5050297;28;20696;-71
2023/04/16 12:45:46;;;;;;;9.70;6.73;;;;;;;;;;5060096;28;20462;-71
2023/04/16 12:48:15;;;;;;;10.73;8.23;;;;;;;;;;5053015;28;20445;-71
2023/04/16 12:50:46;;;;;;;10.20;7.47;;;;;;;;;;5070914;28;20449;-71
2023/04/16 12:53:16;;;;;;;11.87;8.47;;;;;;;;;;5061764;28;20446;-71
2023/04/16 12:55:46;;;;;;;10.77;7.50;;;;;;;;;;5048802;28;20485;-72
2023/04/16 12:58:16;;;;;;;10.43;8.10;;;;;;;;;;5049431;28;20476;-71
2023/04/16 13:00:48;;;;;;;12.90;8.60;;;;;;;;;;5057443;28;21134;-72
2023/04/16 13:03:19;;;;;;;10.43;8.30;;;;;;;;;;5042871;28;20537;-71
2023/04/16 13:05:47;;;;;;;11.70;8.60;;;;;;;;;;5068301;28;20456;-71
2023/04/16 13:08:17;;;;;;;9.53;8.07;;;;;;;;;;5060723;28;20755;-71
2023/04/16 13:10:54;;;;;;;11.67;8.73;;;;;;;;;;5073058;28;20457;-70
2023/04/16 13:13:27;;;;;;;12.83;9.40;;;;;;;;;;5069068;28;20486;-72
2023/04/16 13:16:07;;;;;;;14.67;10.47;;;;;;;;;;5064126;28;20460;-73
2023/04/16 13:18:40;;;;;;;17.20;9.37;;;;;;;;;;5072073;28;20537;-72
2023/04/16 13:21:09;;;;;;;12.00;9.33;;;;;;;;;;5073301;28;20464;-71
2023/04/16 13:23:38;;;;;;;15.47;10.27;;;;;;;;;;5073615;28;20456;-72
2023/04/16 13:26:06;;;;;;;16.37;9.90;;;;;;;;;;5074145;28;20477;-72
2023/04/16 13:28:34;;;;;;;13.63;10.10;;;;;;;;;;5074428;28;20467;-71
2023/04/16 13:31:05;;;;;;;12.80;10.00;;;;;;;;;;5064924;28;20457;-71
2023/04/16 13:33:33;;;;;;;13.30;9.70;;;;;;;;;;5059331;28;20449;-71
2023/04/16 13:36:01;;;;;;;15.03;11.03;;;;;;;;;;5072225;28;20588;-71
2023/04/16 13:38:28;;;;;;;10.03;8.97;;;;;;;;;;5071229;28;21095;-70
2023/04/16 13:40:57;;;;;;;12.50;8.53;;;;;;;;;;5071759;28;20487;-70
2023/04/16 13:43:25;;;;;;;14.87;7.73;;;;;;;;;;5070660;28;20453;-71
2023/04/16 13:45:52;;;;;;;10.67;7.90;;;;;;;;;;5059042;28;20486;-72
2023/04/16 13:48:20;;;;;;;14.20;9.63;;;;;;;;;;5050448;28;20474;-70
2023/04/16 13:50:56;;;;;;;9.17;7.23;;;;;;;;;;5051129;28;20531;-70
2023/04/16 13:53:23;;;;;;;11.07;8.10;;;;;;;;;;5067590;28;20452;-70
2023/04/16 13:55:51;;;;;;;9.13;7.00;;;;;;;;;;5071948;28;20461;-71
2023/04/16 13:58:22;;;;;;;9.50;7.40;;;;;;;;;;5072277;28;20445;-70
2023/04/16 14:00:54;;;;;;;11.30;7.83;;;;;;;;;;5066006;28;20477;-71
2023/04/16 14:03:23;;;;;;;9.43;7.43;;;;;;;;;;5060433;28;20464;-71
2023/04/16 14:05:51;;;;;;;11.80;9.03;;;;;;;;;;5051841;28;20458;-70
2023/04/16 14:08:23;;;;;;;10.90;8.27;;;;;;;;;;5063150;28;20460;-71
2023/04/16 14:10:56;;;;;;;17.67;9.73;;;;;;;;;;5061270;28;20442;-70
2023/04/16 14:13:25;;;;;;;11.53;7.63;;;;;;;;;;5058349;28;20748;-70
2023/04/16 14:15:56;;;;;;;11.20;7.50;;;;;;;;;;5066366;28;20467;-70
2023/04/16 14:18:26;;;;;;;10.43;7.17;;;;;;;;;;5064010;28;20477;-71
2023/04/16 14:20:54;;;;;;;12.50;7.80;;;;;;;;;;5071009;28;20453;-70
2023/04/16 14:23:28;;;;;;;9.57;8.10;;;;;;;;;;5065197;28;20471;-72
2023/04/16 14:26:08;;;;;;;11.43;8.50;;;;;;;;;;5064552;28;20444;-70
2023/04/16 14:28:39;;;;;;;11.53;8.97;;;;;;;;;;5045039;28;20466;-70
2023/04/16 14:31:12;;;;;;;10.67;7.53;;;;;;;;;;5047085;28;20465;-71
2023/04/16 14:33:46;;;;;;;10.63;8.40;;;;;;;;;;5046891;28;20457;-71
2023/04/16 14:36:13;;;;;;;11.40;8.57;;;;;;;;;;5046375;28;21111;-70
2023/04/16 14:38:42;;;;;;;12.13;8.67;;;;;;;;;;5048636;28;20882;-71
2023/04/16 14:41:10;;;;;;;14.93;8.90;;;;;;;;;;5050475;28;20454;-71
2023/04/16 14:43:40;;;;;;;13.60;9.03;;;;;;;;;;5050994;28;20527;-71
2023/04/16 14:46:16;;;;;;;11.50;8.10;;;;;;;;;;5053265;28;20880;-70
2023/04/16 14:48:43;;;;;;;10.80;7.90;;;;;;;;;;5067668;28;20464;-71
2023/04/16 14:51:13;;;;;;;14.17;8.90;;;;;;;;;;5073404;28;20488;-71
2023/04/16 14:53:40;;;;;;;12.43;9.10;;;;;;;;;;5072519;28;20437;-71
2023/04/16 14:56:08;;;;;;;11.10;9.13;;;;;;;;;;5070492;28;20465;-71
2023/04/16 14:58:36;;;;;;;12.10;8.90;;;;;;;;;;5069484;28;20493;-71
2023/04/16 15:01:09;;;;;;;9.87;7.90;;;;;;;;;;5066765;28;21087;-71
2023/04/16 15:03:41;;;;;;;13.33;8.80;;;;;;;;;;5057162;28;20477;-71
2023/04/16 15:06:21;;;;;;;12.90;8.90;;;;;;;;;;5067769;28;20476;-71
2023/04/16 15:08:52;;;;;;;10.87;7.83;;;;;;;;;;5064604;28;20448;-71
2023/04/16 15:11:23;;;;;;;11.60;8.10;;;;;;;;;;5070272;28;20555;-72
2023/04/16 15:13:52;;;;;;;10.00;7.13;;;;;;;;;;5068497;28;20449;-71
2023/04/16 15:16:21;;;;;;;11.17;8.57;;;;;;;;;;5068842;28;20871;-70